createdAt,value
2018-11-23T00:03:04.595Z,71.2
2018-11-23T00:08:04.297Z,71.2
2018-11-23T00:12:28.164Z,71.1
2018-11-23T00:17:28.490Z,71.1
2018-11-23T00:22:28.244Z,71.1
2018-11-23T00:27:27.875Z,71.1
2018-11-23T00:32:28.505Z,70.9
2018-11-23T00:37:28.175Z,70.8
2018-11-23T00:42:27.873Z,70.7
2018-11-23T00:47:28.283Z,70.7
2018-11-23T00:52:27.750Z,70.7
2018-11-23T00:57:28.014Z,70.4
2018-11-23T01:02:28.218Z,70.6
2018-11-23T01:07:28.578Z,70.7
2018-11-23T01:12:28.874Z,70.6
2018-11-23T01:17:28.576Z,70.6
2018-11-23T01:22:27.852Z,70.8
2018-11-23T01:27:29.088Z,70.7
2018-11-23T01:32:28.344Z,70.8
2018-11-23T01:37:28.097Z,70.8
2018-11-23T01:42:28.584Z,70.6
2018-11-23T01:47:27.758Z,70.6
2018-11-23T01:52:28.758Z,70.7
2018-11-23T01:57:28.217Z,70.5
2018-11-23T02:02:29.213Z,70.4
2018-11-23T02:07:28.198Z,70.4
2018-11-23T02:12:27.789Z,70.0
2018-11-23T02:17:28.109Z,70.2
2018-11-23T02:22:27.999Z,70.2
2018-11-23T02:27:28.707Z,70.2
2018-11-23T02:32:28.702Z,70.2
2018-11-23T02:37:28.459Z,70.5
2018-11-23T02:42:27.799Z,70.4
2018-11-23T02:47:27.999Z,70.3
2018-11-23T02:52:28.272Z,70.2
2018-11-23T02:57:27.816Z,70.3
2018-11-23T03:02:28.987Z,70.3
2018-11-23T03:07:28.864Z,70.3
2018-11-23T03:12:28.020Z,70.2
2018-11-23T03:17:27.823Z,70.2
2018-11-23T03:22:28.049Z,70.1
2018-11-23T03:27:28.212Z,70.3
2018-11-23T03:32:28.682Z,70.5
2018-11-23T03:37:28.113Z,70.3
2018-11-23T03:42:28.646Z,70.2
2018-11-23T03:47:28.280Z,70.1
2018-11-23T03:52:27.515Z,70.1
2018-11-23T03:57:28.331Z,70.0
2018-11-23T04:02:29.998Z,70.3
2018-11-23T04:07:27.802Z,70.3
2018-11-23T04:12:28.469Z,70.4
2018-11-23T04:17:28.089Z,70.3
2018-11-23T04:22:29.731Z,70.1
2018-11-23T04:27:27.732Z,70.3
2018-11-23T04:32:27.422Z,70.2
2018-11-23T04:37:28.152Z,70.2
2018-11-23T04:42:27.707Z,70.2
2018-11-23T04:47:28.355Z,70.2
2018-11-23T04:52:28.041Z,70.1
2018-11-23T04:57:28.219Z,70.0
2018-11-23T05:02:28.702Z,70.0
2018-11-23T05:07:28.463Z,69.9
2018-11-23T05:12:27.842Z,69.6
2018-11-23T05:17:28.341Z,69.7
2018-11-23T05:22:28.471Z,69.7
2018-11-23T05:27:28.866Z,69.8
2018-11-23T05:32:28.241Z,70.0
2018-11-23T05:37:27.880Z,69.6
2018-11-23T05:42:28.342Z,69.3
2018-11-23T05:47:28.004Z,69.3
2018-11-23T05:52:27.795Z,69.3
2018-11-23T05:57:28.408Z,69.4
2018-11-23T06:02:29.730Z,69.4
2018-11-23T06:07:29.003Z,69.4
2018-11-23T06:12:28.313Z,69.3
2018-11-23T06:17:28.935Z,69.5
2018-11-23T06:22:28.757Z,69.7
2018-11-23T06:27:28.838Z,69.6
2018-11-23T06:32:28.651Z,69.5
2018-11-23T06:37:28.012Z,69.5
2018-11-23T06:42:29.070Z,69.6
2018-11-23T06:47:28.276Z,69.5
2018-11-23T06:52:28.889Z,69.6
2018-11-23T06:57:28.482Z,69.4
2018-11-23T07:02:29.594Z,69.5
2018-11-23T07:07:28.735Z,69.4
2018-11-23T07:12:29.431Z,69.5
2018-11-23T07:17:28.350Z,69.4
2018-11-23T07:22:28.723Z,69.5
2018-11-23T07:27:28.624Z,69.4
2018-11-23T07:32:28.534Z,69.4
2018-11-23T07:37:28.372Z,69.1
2018-11-23T07:42:28.447Z,68.7
2018-11-23T07:47:29.404Z,69.0
2018-11-23T07:52:28.460Z,68.8
2018-11-23T07:57:28.663Z,68.5
2018-11-23T08:02:28.736Z,68.5
2018-11-23T08:07:29.136Z,68.3
2018-11-23T08:12:30.343Z,68.1
2018-11-23T08:17:29.310Z,68.2
2018-11-23T08:22:29.002Z,68.4
2018-11-23T08:27:28.700Z,68.5
2018-11-23T08:32:28.947Z,68.5
2018-11-23T08:37:28.996Z,68.5
2018-11-23T08:42:28.427Z,68.5
2018-11-23T08:47:28.235Z,68.5
2018-11-23T08:52:28.712Z,68.6
2018-11-23T08:57:28.867Z,68.8
2018-11-23T09:02:29.343Z,68.9
2018-11-23T09:07:28.819Z,69.1
2018-11-23T09:12:29.066Z,69.0
2018-11-23T09:17:30.257Z,69.3
2018-11-23T09:22:28.959Z,69.2
2018-11-23T09:27:28.667Z,69.4
2018-11-23T09:32:29.274Z,69.8
2018-11-23T09:37:28.796Z,69.7
2018-11-23T09:42:28.183Z,69.9
2018-11-23T09:47:29.508Z,70.4
2018-11-23T09:52:28.803Z,70.3
2018-11-23T09:57:29.228Z,70.3
2018-11-23T10:02:28.661Z,70.5
2018-11-23T10:07:28.871Z,70.7
2018-11-23T10:12:28.751Z,71.3
2018-11-23T10:17:29.309Z,71.6
2018-11-23T10:22:28.561Z,71.8
2018-11-23T10:27:30.143Z,71.8
2018-11-23T10:32:28.893Z,72.0
2018-11-23T10:37:29.234Z,72.2
2018-11-23T10:42:29.396Z,72.5
2018-11-23T10:47:28.618Z,72.6
2018-11-23T10:52:28.991Z,73.3
2018-11-23T10:57:29.003Z,73.2
2018-11-23T11:02:28.970Z,73.4
2018-11-23T11:07:28.689Z,74.0
2018-11-23T11:12:29.062Z,74.0
2018-11-23T11:17:29.785Z,74.3
2018-11-23T11:22:28.409Z,74.5
2018-11-23T11:27:28.787Z,74.8
2018-11-23T11:32:29.234Z,74.9
2018-11-23T11:37:28.963Z,75.4
2018-11-23T11:42:28.526Z,75.6
2018-11-23T11:47:28.741Z,75.7
2018-11-23T11:52:28.309Z,76.0
2018-11-23T11:57:29.081Z,76.2
2018-11-23T12:02:28.733Z,76.5
2018-11-23T12:07:29.370Z,76.8
2018-11-23T12:12:28.547Z,77.1
2018-11-23T12:17:28.988Z,77.3
2018-11-23T12:22:28.451Z,77.3
2018-11-23T12:27:29.891Z,77.4
2018-11-23T12:32:28.898Z,77.6
2018-11-23T12:37:28.956Z,77.6
2018-11-23T12:42:28.388Z,77.6
2018-11-23T12:47:29.077Z,77.7
2018-11-23T12:52:28.870Z,77.7
2018-11-23T12:57:28.738Z,77.9
2018-11-23T13:02:29.416Z,78.0
2018-11-23T13:07:29.750Z,78.0
2018-11-23T13:12:30.395Z,78.1
2018-11-23T13:17:28.388Z,78.2
2018-11-23T13:22:28.261Z,78.2
2018-11-23T13:27:29.588Z,78.3
2018-11-23T13:32:29.251Z,78.1
2018-11-23T13:37:28.141Z,78.2
2018-11-23T13:42:28.656Z,78.3
2018-11-23T13:47:28.314Z,78.4
2018-11-23T13:52:28.274Z,78.5
2018-11-23T13:57:28.854Z,78.4
2018-11-23T14:02:28.441Z,78.5
2018-11-23T14:07:28.853Z,78.6
2018-11-23T14:12:29.116Z,78.5
2018-11-23T14:17:29.159Z,78.6
2018-11-23T14:22:28.788Z,78.6
2018-11-23T14:27:29.300Z,78.6
2018-11-23T14:32:29.069Z,78.8
2018-11-23T14:37:29.025Z,78.9
2018-11-23T14:42:29.827Z,78.9
2018-11-23T14:47:28.930Z,78.8
2018-11-23T14:52:28.756Z,79.1
2018-11-23T14:57:28.719Z,79.2
2018-11-23T15:02:29.075Z,79.2
2018-11-23T15:07:28.918Z,79.2
2018-11-23T15:12:30.514Z,79.4
2018-11-23T15:17:28.341Z,79.4
2018-11-23T15:22:28.457Z,79.2
2018-11-23T15:27:28.847Z,79.1
2018-11-23T15:32:28.275Z,79.0
2018-11-23T15:37:29.634Z,78.9
2018-11-23T15:42:28.598Z,78.8
2018-11-23T15:47:28.455Z,78.7
2018-11-23T15:52:28.832Z,78.8
2018-11-23T15:57:29.500Z,78.7
2018-11-23T16:02:28.837Z,78.6
2018-11-23T16:07:27.785Z,78.4
2018-11-23T16:12:29.224Z,78.4
2018-11-23T16:17:29.036Z,78.3
2018-11-23T16:22:27.965Z,78.3
2018-11-23T16:27:28.448Z,78.2
2018-11-23T16:32:28.173Z,77.7
2018-11-23T16:37:27.869Z,77.4
2018-11-23T16:42:29.247Z,77.5
2018-11-23T16:47:28.957Z,77.6
2018-11-23T16:52:28.390Z,77.5
2018-11-23T16:57:27.838Z,77.4
2018-11-23T17:02:28.085Z,77.1
2018-11-23T17:07:28.383Z,77.2
2018-11-23T17:12:29.666Z,77.0
2018-11-23T17:17:28.350Z,76.8
2018-11-23T17:22:27.909Z,76.8
2018-11-23T17:27:27.755Z,76.9
2018-11-23T17:32:28.795Z,76.8
2018-11-23T17:37:28.202Z,76.4
2018-11-23T17:42:27.885Z,76.5
2018-11-23T17:47:29.403Z,76.6
2018-11-23T17:52:28.090Z,76.6
2018-11-23T17:57:27.754Z,76.4
2018-11-23T18:02:28.190Z,76.4
2018-11-23T18:07:28.503Z,76.2
2018-11-23T18:12:28.218Z,76.2
2018-11-23T18:17:28.386Z,76.4
2018-11-23T18:22:27.842Z,76.2
2018-11-23T18:27:28.170Z,76.1
2018-11-23T18:32:28.241Z,76.1
2018-11-23T18:37:27.926Z,76.0
2018-11-23T18:42:28.494Z,76.0
2018-11-23T18:47:28.722Z,75.8
2018-11-23T18:52:28.073Z,75.7
2018-11-23T18:57:28.903Z,75.7
2018-11-23T19:02:28.406Z,75.6
2018-11-23T19:07:28.466Z,75.4
2018-11-23T19:12:28.549Z,75.3
2018-11-23T19:17:29.657Z,75.4
2018-11-23T19:22:27.788Z,75.3
2018-11-23T19:27:29.081Z,75.2
2018-11-23T19:32:28.269Z,75.1
2018-11-23T19:37:27.943Z,74.9
2018-11-23T19:42:29.026Z,74.9
2018-11-23T19:47:28.422Z,74.9
2018-11-23T19:52:27.388Z,74.7
2018-11-23T19:57:28.168Z,75.0
2018-11-23T20:02:28.858Z,74.9
2018-11-23T20:07:28.835Z,74.8
2018-11-23T20:12:28.170Z,74.8
2018-11-23T20:17:28.835Z,74.8
2018-11-23T20:22:27.785Z,74.7
2018-11-23T20:27:28.665Z,74.7
2018-11-23T20:32:28.340Z,74.7
2018-11-23T20:37:28.267Z,74.8
2018-11-23T20:42:27.959Z,74.7
2018-11-23T20:47:28.890Z,74.7
2018-11-23T20:52:28.266Z,74.9
2018-11-23T20:57:28.162Z,74.8
2018-11-23T21:02:27.882Z,74.9
2018-11-23T21:07:28.194Z,75.0
2018-11-23T21:12:28.937Z,74.9
2018-11-23T21:17:28.549Z,74.8
2018-11-23T21:22:27.849Z,74.9
2018-11-23T21:27:28.665Z,75.0
2018-11-23T21:32:28.156Z,75.0
2018-11-23T21:37:28.525Z,75.0
2018-11-23T21:42:27.895Z,74.9
2018-11-23T21:47:27.464Z,74.8
2018-11-23T21:52:28.718Z,74.8
2018-11-23T21:57:27.722Z,74.8
2018-11-23T22:02:27.918Z,74.8
2018-11-23T22:07:28.794Z,74.6
2018-11-23T22:12:28.428Z,74.7
2018-11-23T22:17:28.089Z,74.7
2018-11-23T22:22:27.942Z,74.8
2018-11-23T22:27:29.567Z,74.6
2018-11-23T22:32:28.099Z,74.5
2018-11-23T22:37:28.519Z,74.6
2018-11-23T22:42:27.223Z,74.7
2018-11-23T22:47:29.284Z,74.5
2018-11-23T22:52:27.907Z,74.7
2018-11-23T22:57:28.189Z,75.0
2018-11-23T23:02:28.247Z,75.0
2018-11-23T23:07:27.745Z,74.6
2018-11-23T23:12:28.352Z,74.8
2018-11-23T23:23:06.070Z,74.3
2018-11-23T23:28:05.438Z,74.7
2018-11-23T23:33:04.639Z,74.7
2018-11-23T23:38:05.255Z,74.7
2018-11-23T23:43:05.763Z,74.6
2018-11-23T23:48:05.944Z,74.7
2018-11-23T23:53:04.716Z,74.7
2018-11-23T23:58:05.496Z,74.6
